Time;durP1;ratioP1;P1;durP2;ratioP2;P2;SDS_P1;SDS_P2;PMS_P1;PMS_P2;Temp;Humidity;BMP_temperature;BMP_pressure;BME280_temperature;BME280_humidity;BME280_pressure;Samples;Min_cycle;Max_cycle;Signal;HPM_P1;HPM_P2
2020/12/29 00:01:35;;;;;;;17.15;13.63;;;4.10;99.90;;;;;;5078979;28;20024;-68
2020/12/29 00:04:03;;;;;;;19.20;14.05;;;4.00;99.90;;;;;;5082996;28;20029;-68
2020/12/29 00:06:28;;;;;;;22.77;14.48;;;4.00;99.90;;;;;;5080283;28;20103;-68
2020/12/29 00:08:54;;;;;;;18.15;14.15;;;4.10;99.90;;;;;;5082302;28;20546;-68
2020/12/29 00:11:19;;;;;;;15.95;12.93;;;4.00;99.90;;;;;;5077517;28;20523;-68
2020/12/29 00:13:45;;;;;;;17.77;13.68;;;4.00;99.90;;;;;;5079847;28;20029;-68
2020/12/29 00:16:10;;;;;;;15.38;12.75;;;4.00;99.90;;;;;;5087196;28;20079;-68
2020/12/29 00:18:36;;;;;;;20.17;13.25;;;4.00;99.90;;;;;;5089033;28;20032;-68
2020/12/29 00:21:02;;;;;;;14.75;11.68;;;3.90;99.90;;;;;;5084574;28;20040;-68
2020/12/29 00:23:28;;;;;;;14.13;10.73;;;3.90;99.90;;;;;;5083171;28;20698;-68
2020/12/29 00:25:54;;;;;;;12.90;11.50;;;3.90;99.90;;;;;;5082169;28;20031;-68
2020/12/29 00:28:20;;;;;;;14.25;10.63;;;3.90;99.90;;;;;;5078964;28;20726;-68
2020/12/29 00:30:46;;;;;;;12.88;10.55;;;3.90;99.90;;;;;;5079840;28;20043;-68
2020/12/29 00:33:11;;;;;;;12.20;10.27;;;3.90;99.90;;;;;;5075105;28;20024;-68
2020/12/29 00:35:37;;;;;;;11.93;10.20;;;3.90;99.90;;;;;;5085291;28;20137;-70
2020/12/29 00:38:02;;;;;;;10.73;9.15;;;3.90;99.90;;;;;;5083405;28;20020;-67
2020/12/29 00:40:28;;;;;;;12.98;9.35;;;3.80;99.90;;;;;;5079877;28;20024;-68
2020/12/29 00:42:53;;;;;;;13.35;10.27;;;3.80;99.90;;;;;;5083603;28;20115;-68
2020/12/29 00:45:19;;;;;;;14.10;10.77;;;3.80;99.90;;;;;;5085124;28;20031;-71
2020/12/29 00:47:44;;;;;;;13.65;10.23;;;3.80;99.90;;;;;;5081038;28;20052;-70
2020/12/29 00:50:10;;;;;;;15.65;11.65;;;3.80;99.90;;;;;;5082082;28;20028;-69
2020/12/29 00:52:35;;;;;;;11.30;9.43;;;3.80;99.90;;;;;;5082770;28;20035;-69
2020/12/29 00:55:01;;;;;;;14.13;11.00;;;3.70;99.90;;;;;;5078242;28;20124;-68
2020/12/29 00:57:26;;;;;;;13.20;10.55;;;3.80;99.90;;;;;;5078544;28;20017;-68
2020/12/29 00:59:52;;;;;;;13.25;10.63;;;3.80;99.90;;;;;;5080143;28;20017;-69
2020/12/29 01:02:17;;;;;;;12.57;10.57;;;3.80;99.90;;;;;;5085772;28;20025;-67
2020/12/29 01:04:43;;;;;;;17.15;11.80;;;3.80;99.90;;;;;;5080311;28;20028;-69
2020/12/29 01:07:08;;;;;;;11.43;10.23;;;3.80;99.90;;;;;;5078160;28;20565;-69
2020/12/29 01:09:34;;;;;;;14.27;10.35;;;3.80;99.90;;;;;;5085809;28;21954;-68
2020/12/29 01:12:00;;;;;;;15.73;11.40;;;3.90;99.90;;;;;;5075034;28;20057;-68
2020/12/29 01:14:25;;;;;;;15.60;11.55;;;3.80;99.90;;;;;;5082995;28;20020;-68
2020/12/29 01:16:51;;;;;;;14.98;11.63;;;3.90;99.90;;;;;;5077464;28;20055;-68
2020/12/29 01:19:16;;;;;;;14.73;11.88;;;3.80;99.90;;;;;;5074832;28;20097;-68
2020/12/29 01:21:42;;;;;;;16.70;12.07;;;3.90;99.90;;;;;;5077450;28;20451;-68
2020/12/29 01:24:07;;;;;;;13.88;11.55;;;3.90;99.90;;;;;;5076639;28;20489;-68
2020/12/29 01:26:33;;;;;;;17.73;12.48;;;3.90;99.90;;;;;;5074848;28;20028;-68
2020/12/29 01:28:58;;;;;;;16.70;12.77;;;3.80;99.90;;;;;;5076703;28;20768;-69
2020/12/29 01:31:29;;;;;;;17.77;13.07;;;3.90;99.90;;;;;;5079825;28;20444;-68
2020/12/29 01:33:55;;;;;;;14.48;12.23;;;3.80;99.90;;;;;;5088427;28;20023;-68
2020/12/29 01:36:21;;;;;;;15.15;12.55;;;3.80;99.90;;;;;;5083089;28;20039;-67
2020/12/29 01:38:47;;;;;;;15.63;12.93;;;3.80;99.90;;;;;;5072445;28;20480;-67
2020/12/29 01:41:13;;;;;;;17.90;12.80;;;3.80;99.90;;;;;;5076408;28;20056;-70
2020/12/29 01:43:38;;;;;;;17.33;13.27;;;3.80;99.90;;;;;;5076830;28;20448;-68
2020/12/29 01:46:04;;;;;;;17.15;12.88;;;3.80;99.90;;;;;;5075136;28;20100;-68
2020/12/29 01:48:29;;;;;;;18.05;12.98;;;3.80;99.90;;;;;;5077628;28;20066;-68
2020/12/29 01:50:56;;;;;;;19.05;14.40;;;3.80;99.90;;;;;;5081000;28;20048;-68
2020/12/29 01:53:22;;;;;;;19.05;13.45;;;3.80;99.90;;;;;;5080111;28;20024;-68
2020/12/29 01:55:47;;;;;;;22.48;14.93;;;3.80;99.90;;;;;;5081615;28;20369;-68
2020/12/29 01:58:13;;;;;;;18.60;13.43;;;3.70;99.90;;;;;;5078510;28;20455;-68
2020/12/29 02:00:39;;;;;;;22.00;15.07;;;3.70;99.90;;;;;;5072776;28;20044;-67
2020/12/29 02:03:06;;;;;;;19.52;13.48;;;3.70;99.90;;;;;;5080975;28;20093;-67
2020/12/29 02:05:32;;;;;;;16.30;12.73;;;3.70;99.90;;;;;;5080305;28;20032;-68
2020/12/29 02:07:58;;;;;;;19.33;13.48;;;3.60;99.90;;;;;;5080567;28;20035;-70
2020/12/29 02:10:24;;;;;;;21.55;14.30;;;3.50;99.90;;;;;;5080762;28;20052;-67
2020/12/29 02:12:50;;;;;;;20.08;14.50;;;3.60;99.90;;;;;;5082066;28;20559;-67
2020/12/29 02:15:16;;;;;;;19.42;14.27;;;3.50;99.90;;;;;;5075953;28;20103;-67
2020/12/29 02:17:42;;;;;;;19.48;14.27;;;3.50;99.90;;;;;;5080770;28;20086;-68
2020/12/29 02:20:07;;;;;;;21.10;14.73;;;3.50;99.90;;;;;;5076935;28;20046;-69
2020/12/29 02:22:33;;;;;;;22.98;15.55;;;3.40;99.90;;;;;;5075846;28;20058;-68
2020/12/29 02:25:03;;;;;;;21.40;14.50;;;3.40;99.90;;;;;;5077381;28;20512;-68
2020/12/29 02:27:30;;;;;;;17.58;14.13;;;3.40;99.90;;;;;;5078900;28;20082;-68
2020/12/29 02:29:56;;;;;;;19.75;14.35;;;3.40;99.90;;;;;;5079415;28;20033;-68
2020/12/29 02:32:23;;;;;;;19.45;14.63;;;3.40;99.90;;;;;;5075972;28;20020;-68
2020/12/29 02:34:49;;;;;;;18.60;14.80;;;3.40;99.90;;;;;;5077576;28;20070;-68
2020/12/29 02:37:15;;;;;;;17.92;13.70;;;3.50;99.90;;;;;;5081291;28;20048;-68
2020/12/29 02:39:43;;;;;;;18.60;13.85;;;3.40;99.90;;;;;;5071284;28;20476;-67
2020/12/29 02:42:09;;;;;;;19.75;14.02;;;3.40;99.90;;;;;;5074350;28;20032;-68
2020/12/29 02:44:35;;;;;;;18.83;14.15;;;3.40;99.90;;;;;;5072271;28;20032;-68
2020/12/29 02:47:01;;;;;;;16.65;12.70;;;3.40;99.90;;;;;;5074312;28;20106;-68
2020/12/29 02:49:27;;;;;;;17.30;12.50;;;3.40;99.90;;;;;;5088159;28;20043;-68
2020/12/29 02:51:56;;;;;;;18.65;13.45;;;3.40;99.90;;;;;;5090844;28;20103;-68
2020/12/29 02:54:23;;;;;;;18.55;13.43;;;3.40;99.90;;;;;;5089181;28;20469;-67
2020/12/29 02:56:49;;;;;;;18.23;12.98;;;3.40;99.90;;;;;;5091650;28;20557;-68
2020/12/29 02:59:14;;;;;;;17.02;13.15;;;3.40;99.90;;;;;;5090385;28;20103;-67
2020/12/29 03:01:40;;;;;;;16.33;12.48;;;3.40;99.90;;;;;;5090086;28;20092;-68
2020/12/29 03:04:05;;;;;;;18.35;12.70;;;3.30;99.90;;;;;;5090813;28;20069;-67
2020/12/29 03:06:31;;;;;;;17.50;11.48;;;3.30;99.90;;;;;;5090191;28;20073;-68
2020/12/29 03:08:56;;;;;;;18.45;13.00;;;3.30;99.90;;;;;;5089831;28;20067;-68
2020/12/29 03:11:26;;;;;;;15.02;11.68;;;3.30;99.90;;;;;;5089859;28;20044;-68
2020/12/29 03:13:53;;;;;;;14.15;11.02;;;3.30;99.90;;;;;;5093114;28;20028;-68
2020/12/29 03:16:19;;;;;;;16.35;12.27;;;3.30;99.90;;;;;;5085053;28;20032;-67
2020/12/29 03:18:45;;;;;;;12.05;10.73;;;3.30;99.90;;;;;;5073817;28;20052;-68
2020/12/29 03:21:10;;;;;;;16.33;11.40;;;3.30;99.90;;;;;;5077449;28;20017;-67
2020/12/29 03:23:36;;;;;;;14.65;11.35;;;3.40;99.90;;;;;;5087079;28;20028;-68
2020/12/29 03:26:01;;;;;;;13.45;11.15;;;3.40;99.90;;;;;;5081270;28;20025;-68
2020/12/29 03:28:27;;;;;;;18.00;11.80;;;3.40;99.90;;;;;;5092723;28;20372;-68
2020/12/29 03:30:53;;;;;;;18.65;13.23;;;3.40;99.90;;;;;;5093448;28;20032;-69
2020/12/29 03:33:18;;;;;;;16.60;12.98;;;3.40;99.90;;;;;;5090920;28;20123;-68
2020/12/29 03:35:44;;;;;;;16.05;12.40;;;3.40;99.90;;;;;;5079211;28;20036;-69
2020/12/29 03:38:09;;;;;;;17.25;13.10;;;3.40;99.90;;;;;;5072539;28;20023;-68
2020/12/29 03:40:35;;;;;;;16.98;12.98;;;3.40;99.90;;;;;;5072683;28;20031;-68
2020/12/29 03:43:00;;;;;;;18.10;13.82;;;3.40;99.90;;;;;;5072003;28;20103;-68
2020/12/29 03:45:26;;;;;;;18.02;12.93;;;3.40;99.90;;;;;;5072484;28;20027;-68
2020/12/29 03:47:51;;;;;;;17.42;12.73;;;3.40;99.90;;;;;;5073479;28;20437;-68
2020/12/29 03:50:17;;;;;;;17.98;13.00;;;3.40;99.90;;;;;;5071801;28;20643;-68
2020/12/29 03:52:42;;;;;;;21.15;14.50;;;3.40;99.90;;;;;;5081187;28;20032;-68
2020/12/29 03:55:08;;;;;;;18.83;13.77;;;3.50;99.90;;;;;;5093694;28;20024;-68
2020/12/29 03:57:33;;;;;;;16.48;12.45;;;3.40;99.90;;;;;;5092305;28;20077;-68
2020/12/29 03:59:59;;;;;;;18.80;13.23;;;3.40;99.90;;;;;;5093452;28;20160;-68
2020/12/29 04:02:25;;;;;;;20.75;13.98;;;3.40;99.90;;;;;;5093010;28;20097;-68
2020/12/29 04:04:50;;;;;;;19.35;13.10;;;3.50;99.90;;;;;;5092615;28;20024;-68
2020/12/29 04:07:16;;;;;;;19.58;14.50;;;3.50;99.90;;;;;;5092982;28;20016;-68
2020/12/29 04:09:41;;;;;;;18.70;13.68;;;3.50;99.90;;;;;;5092915;28;20034;-68
2020/12/29 04:12:07;;;;;;;20.20;14.40;;;3.50;99.90;;;;;;5092828;28;20032;-68
2020/12/29 04:14:33;;;;;;;19.75;14.52;;;3.50;99.90;;;;;;5092866;28;20073;-68
2020/12/29 04:16:58;;;;;;;17.73;13.05;;;3.50;99.90;;;;;;5092912;28;20555;-68
2020/12/29 04:19:24;;;;;;;22.50;14.32;;;3.50;99.90;;;;;;5081580;28;20025;-68
2020/12/29 04:21:49;;;;;;;18.15;13.70;;;3.50;99.90;;;;;;5082176;28;20471;-68
2020/12/29 04:24:15;;;;;;;19.02;13.75;;;3.50;99.90;;;;;;5090817;28;20464;-69
2020/12/29 04:26:40;;;;;;;18.60;13.02;;;3.40;99.90;;;;;;5077305;28;20422;-68
2020/12/29 04:29:06;;;;;;;16.65;12.50;;;3.40;99.90;;;;;;5085414;28;20434;-69
2020/12/29 04:31:31;;;;;;;14.63;12.00;;;3.30;99.90;;;;;;5092382;28;20353;-68
2020/12/29 04:33:58;;;;;;;17.35;11.73;;;3.30;99.90;;;;;;5092154;28;20408;-69
2020/12/29 04:36:24;;;;;;;15.77;11.95;;;3.20;99.90;;;;;;5092254;28;20039;-68
2020/12/29 04:38:49;;;;;;;15.75;12.15;;;3.30;99.90;;;;;;5092774;28;20329;-69
2020/12/29 04:41:16;;;;;;;13.23;10.35;;;3.20;99.90;;;;;;5091668;28;20482;-68
2020/12/29 04:43:42;;;;;;;13.93;11.10;;;3.20;99.90;;;;;;5092759;28;20020;-68
2020/12/29 04:46:07;;;;;;;16.27;11.38;;;3.20;99.90;;;;;;5092951;28;20101;-69
2020/12/29 04:48:33;;;;;;;11.85;10.00;;;3.20;99.90;;;;;;5091354;28;20043;-68
2020/12/29 04:51:08;;;;;;;15.23;11.50;;;3.20;99.90;;;;;;5092260;28;20472;-68
2020/12/29 04:53:35;;;;;;;14.30;11.60;;;3.20;99.90;;;;;;5091574;28;20016;-68
2020/12/29 04:56:06;;;;;;;17.27;13.52;;;3.10;99.90;;;;;;5092619;28;20054;-68
2020/12/29 04:58:33;;;;;;;18.45;13.25;;;3.10;99.90;;;;;;5091967;28;20052;-69
2020/12/29 05:01:07;;;;;;;21.58;14.35;;;3.10;99.90;;;;;;5091701;28;20141;-68
2020/12/29 05:03:46;;;;;;;21.25;14.85;;;3.00;99.90;;;;;;5091924;28;20062;-68
2020/12/29 05:06:13;;;;;;;20.58;14.75;;;3.00;99.90;;;;;;5092434;28;20021;-68
2020/12/29 05:08:44;;;;;;;21.63;14.15;;;3.20;99.90;;;;;;5091535;28;20398;-70
2020/12/29 05:11:10;;;;;;;20.27;13.90;;;2.90;99.90;;;;;;5091927;28;20079;-69
2020/12/29 05:13:35;;;;;;;23.20;14.18;;;2.90;99.90;;;;;;5091654;28;20116;-68
2020/12/29 05:16:01;;;;;;;21.58;14.40;;;2.90;99.90;;;;;;5091220;28;20487;-68
2020/12/29 05:18:27;;;;;;;20.00;14.45;;;2.90;99.90;;;;;;5092110;28;20402;-68
2020/12/29 05:20:53;;;;;;;20.90;15.18;;;2.90;99.90;;;;;;5092118;28;20418;-69
2020/12/29 05:23:18;;;;;;;21.17;14.02;;;2.90;99.90;;;;;;5090747;28;20032;-68
2020/12/29 05:25:47;;;;;;;23.85;14.38;;;2.90;99.90;;;;;;5078847;28;20036;-68
2020/12/29 05:28:13;;;;;;;20.58;13.95;;;2.90;99.90;;;;;;5090407;28;20071;-69
2020/12/29 05:30:40;;;;;;;19.67;13.93;;;2.90;99.90;;;;;;5090967;28;20044;-69
2020/12/29 05:33:12;;;;;;;21.95;14.55;;;2.90;99.90;;;;;;5091964;28;20073;-69
2020/12/29 05:35:39;;;;;;;21.33;13.75;;;2.90;99.90;;;;;;5090568;28;20020;-69
2020/12/29 05:38:07;;;;;;;22.55;15.43;;;2.80;99.90;;;;;;5091537;28;20024;-68
2020/12/29 05:40:33;;;;;;;21.33;14.40;;;2.90;99.90;;;;;;5091283;28;20106;-68
2020/12/29 05:43:01;;;;;;;19.75;13.45;;;2.80;99.90;;;;;;5091073;28;20028;-69
2020/12/29 05:45:34;;;;;;;19.73;13.35;;;2.90;99.90;;;;;;5091391;28;20123;-69
2020/12/29 05:48:00;;;;;;;21.10;13.70;;;2.90;99.90;;;;;;5092043;28;20028;-69
2020/12/29 05:50:28;;;;;;;20.02;13.02;;;2.80;99.90;;;;;;5090437;28;20383;-69
2020/12/29 05:52:57;;;;;;;21.80;13.73;;;2.80;99.90;;;;;;5091548;28;20024;-69
2020/12/29 05:55:23;;;;;;;19.10;12.93;;;2.80;99.90;;;;;;5091187;28;20024;-69
2020/12/29 05:58:19;;;;;;;19.23;13.00;;;2.80;99.90;;;;;;5090606;28;20169;-68
2020/12/29 06:00:44;;;;;;;18.15;13.18;;;2.80;99.90;;;;;;5078421;28;20043;-69
2020/12/29 06:03:10;;;;;;;21.02;13.32;;;2.90;99.90;;;;;;5091238;28;20092;-69
2020/12/29 06:05:38;;;;;;;20.00;12.93;;;2.90;99.90;;;;;;5090145;28;20019;-68
2020/12/29 06:08:06;;;;;;;20.00;13.57;;;2.90;99.90;;;;;;5091097;28;20027;-69
2020/12/29 06:10:33;;;;;;;22.73;13.35;;;2.90;99.90;;;;;;5090894;28;20043;-68
2020/12/29 06:13:04;;;;;;;22.80;14.07;;;3.00;99.90;;;;;;5090878;28;20032;-67
2020/12/29 06:15:37;;;;;;;22.70;13.50;;;3.00;99.90;;;;;;5091086;28;20358;-68
2020/12/29 06:18:05;;;;;;;21.92;13.65;;;3.00;99.90;;;;;;5090837;28;20033;-67
2020/12/29 06:20:45;;;;;;;21.25;14.30;;;3.00;99.90;;;;;;5090835;28;20024;-69
2020/12/29 06:23:17;;;;;;;20.40;13.18;;;3.00;99.90;;;;;;5090232;28;20055;-68
2020/12/29 06:25:45;;;;;;;18.60;12.02;;;3.10;99.90;;;;;;5074267;28;20029;-68
2020/12/29 06:28:14;;;;;;;21.65;13.55;;;3.10;99.90;;;;;;5073005;28;20544;-68
2020/12/29 06:30:41;;;;;;;21.25;13.38;;;3.20;99.90;;;;;;5077683;28;20028;-68
2020/12/29 06:33:07;;;;;;;21.90;13.20;;;3.20;99.90;;;;;;5074155;28;20032;-68
2020/12/29 06:35:33;;;;;;;21.52;13.35;;;3.20;99.90;;;;;;5076872;28;20491;-68
2020/12/29 06:38:08;;;;;;;22.15;13.85;;;3.20;99.90;;;;;;5070012;28;20536;-68
2020/12/29 06:40:34;;;;;;;24.45;15.27;;;3.20;99.90;;;;;;5069413;28;20108;-68
2020/12/29 06:43:00;;;;;;;22.13;14.05;;;3.20;99.90;;;;;;5077485;28;20114;-68
2020/12/29 06:45:32;;;;;;;22.23;13.98;;;3.10;99.90;;;;;;5073886;28;20379;-68
2020/12/29 06:47:58;;;;;;;22.33;13.55;;;3.10;99.90;;;;;;5081680;28;20034;-69
2020/12/29 06:50:28;;;;;;;24.38;13.95;;;3.10;99.90;;;;;;5078604;28;20040;-68
2020/12/29 06:52:58;;;;;;;24.80;14.50;;;3.10;99.90;;;;;;5073405;28;20036;-68
2020/12/29 06:55:26;;;;;;;22.80;13.90;;;3.10;99.90;;;;;;5076710;28;20028;-68
2020/12/29 06:57:52;;;;;;;25.73;14.70;;;3.00;99.90;;;;;;5074022;28;20263;-68
2020/12/29 07:00:20;;;;;;;28.83;15.82;;;3.00;99.90;;;;;;5072629;28;20069;-68
2020/12/29 07:02:48;;;;;;;23.13;14.65;;;3.10;99.90;;;;;;5074148;28;20028;-67
2020/12/29 07:05:18;;;;;;;22.02;14.43;;;3.10;99.90;;;;;;5078445;28;20054;-70
2020/12/29 07:08:00;;;;;;;;;;;3.10;99.90;;;;;;5090165;28;20496;-69
2020/12/29 07:10:42;;;;;;;21.67;14.07;;;3.10;99.90;;;;;;5089172;28;19955;-69
2020/12/29 07:13:13;;;;;;;28.00;14.35;;;3.00;99.90;;;;;;5093411;28;20024;-68
2020/12/29 07:15:47;;;;;;;22.30;14.77;;;3.00;99.90;;;;;;5092606;28;20020;-68
2020/12/29 07:18:20;;;;;;;22.30;14.48;;;3.00;99.90;;;;;;5085405;28;20476;-68
2020/12/29 07:20:48;;;;;;;22.55;14.38;;;2.90;99.90;;;;;;5080850;28;20387;-68
2020/12/29 07:23:17;;;;;;;19.45;13.07;;;2.90;99.90;;;;;;5084733;28;20043;-69
2020/12/29 07:25:48;;;;;;;25.55;15.80;;;2.90;99.90;;;;;;5083840;28;20476;-68
2020/12/29 07:28:14;;;;;;;23.40;14.90;;;2.80;99.90;;;;;;5084585;28;20079;-68
2020/12/29 07:30:40;;;;;;;24.92;15.80;;;2.80;99.90;;;;;;5092040;28;20166;-69
2020/12/29 07:33:07;;;;;;;23.95;15.52;;;2.90;99.90;;;;;;5086969;28;20105;-69
2020/12/29 07:35:35;;;;;;;24.67;14.98;;;2.90;99.90;;;;;;5089106;28;20024;-69
2020/12/29 07:38:14;;;;;;;27.30;15.70;;;2.90;99.90;;;;;;5087397;28;20146;-69
2020/12/29 07:40:40;;;;;;;25.15;15.27;;;2.90;99.90;;;;;;5090984;28;20028;-68
2020/12/29 07:43:06;;;;;;;23.40;15.23;;;2.90;99.90;;;;;;5089527;28;20020;-68
2020/12/29 07:45:33;;;;;;;26.27;15.30;;;2.90;99.90;;;;;;5091489;28;20564;-68
2020/12/29 07:48:00;;;;;;;27.65;16.10;;;2.90;99.90;;;;;;5092093;28;20028;-69
2020/12/29 07:50:26;;;;;;;27.80;16.52;;;2.90;99.90;;;;;;5086151;28;20036;-68
2020/12/29 07:53:02;;;;;;;26.73;16.08;;;2.90;99.90;;;;;;5089265;28;20024;-68
2020/12/29 07:55:28;;;;;;;26.10;16.42;;;2.90;99.90;;;;;;5090187;28;20024;-68
2020/12/29 07:57:55;;;;;;;26.15;14.95;;;2.80;99.90;;;;;;5090439;28;20043;-69
2020/12/29 08:00:20;;;;;;;29.88;16.35;;;2.80;99.90;;;;;;5088628;28;20016;-69
2020/12/29 08:02:53;;;;;;;24.00;15.63;;;2.80;99.90;;;;;;5090381;28;20020;-69
2020/12/29 08:05:20;;;;;;;29.25;16.48;;;2.80;99.90;;;;;;5090606;28;20448;-69
2020/12/29 08:07:56;;;;;;;27.52;15.52;;;2.80;99.90;;;;;;5093465;28;20039;-68
2020/12/29 08:10:30;;;;;;;33.15;17.45;;;2.80;99.90;;;;;;5083411;28;20051;-68
2020/12/29 08:13:01;;;;;;;27.38;15.65;;;2.80;99.90;;;;;;5089290;28;20032;-69
2020/12/29 08:15:30;;;;;;;30.42;16.55;;;2.90;99.90;;;;;;5084439;28;20029;-68
2020/12/29 08:18:18;;;;;;;26.23;15.60;;;2.90;99.90;;;;;;5090664;28;20498;-69
2020/12/29 08:20:46;;;;;;;35.13;16.45;;;3.00;99.90;;;;;;5075930;28;20384;-68
2020/12/29 08:23:14;;;;;;;32.15;17.30;;;3.00;99.90;;;;;;5073701;28;20029;-69
2020/12/29 08:25:39;;;;;;;28.38;16.55;;;3.10;99.90;;;;;;5072965;28;20054;-67
2020/12/29 08:28:06;;;;;;;27.70;15.23;;;3.20;99.90;;;;;;5092074;28;20415;-67
2020/12/29 08:30:34;;;;;;;26.05;15.07;;;3.20;99.90;;;;;;5093699;28;20036;-68
2020/12/29 08:33:04;;;;;;;33.22;14.63;;;3.20;99.90;;;;;;5090541;28;20027;-68
2020/12/29 08:36:03;;;;;;;30.48;15.75;;;3.20;99.90;;;;;;5090936;28;20038;-67
2020/12/29 08:38:41;;;;;;;27.33;15.75;;;3.30;99.90;;;;;;5089111;28;20193;-68
2020/12/29 08:41:10;;;;;;;28.00;15.63;;;3.30;99.90;;;;;;5083023;28;20020;-68
2020/12/29 08:43:44;;;;;;;25.73;15.10;;;3.40;99.90;;;;;;5075146;28;20024;-67
2020/12/29 08:46:11;;;;;;;28.20;16.05;;;3.50;99.90;;;;;;5073524;28;20052;-68
2020/12/29 08:48:37;;;;;;;24.10;15.10;;;3.50;99.90;;;;;;5072418;28;20032;-68
2020/12/29 08:51:20;;;;;;;25.27;15.02;;;3.50;99.90;;;;;;5074526;28;20385;-68
2020/12/29 08:53:46;;;;;;;24.02;15.30;;;3.50;99.90;;;;;;5072001;28;20111;-66
2020/12/29 08:56:25;;;;;;;25.83;16.08;;;3.60;99.90;;;;;;5066279;28;20054;-68
2020/12/29 08:58:51;;;;;;;25.35;14.93;;;3.70;99.90;;;;;;5086155;28;20023;-68
2020/12/29 09:01:34;;;;;;;21.58;14.10;;;3.70;99.90;;;;;;5084845;28;20104;-68
2020/12/29 09:04:24;;;;;;;25.17;14.55;;;3.80;99.90;;;;;;5077490;28;20036;-68
2020/12/29 09:07:10;;;;;;;21.08;13.77;;;3.80;99.90;;;;;;5071816;28;20724;-69
2020/12/29 09:10:07;;;;;;;21.73;13.82;;;3.90;99.90;;;;;;5071533;28;20056;-68
2020/12/29 09:12:34;;;;;;;22.08;13.30;;;3.90;99.90;;;;;;5071218;28;20421;-69
2020/12/29 09:15:04;;;;;;;22.13;13.07;;;4.00;99.90;;;;;;5082923;28;20028;-69
2020/12/29 09:17:33;;;;;;;20.60;13.70;;;4.10;99.90;;;;;;5075341;28;20122;-69
2020/12/29 09:20:17;;;;;;;21.00;14.07;;;4.10;99.90;;;;;;5072043;28;20031;-67
2020/12/29 09:22:53;;;;;;;21.08;14.15;;;4.20;99.90;;;;;;5071528;28;20028;-70
2020/12/29 09:25:23;;;;;;;26.60;16.90;;;4.30;99.90;;;;;;5076228;28;20020;-68
2020/12/29 09:27:49;;;;;;;23.75;14.57;;;4.40;99.90;;;;;;5074852;28;20086;-68
2020/12/29 09:30:15;;;;;;;25.00;15.88;;;4.50;99.90;;;;;;5070916;28;20380;-68
2020/12/29 09:32:40;;;;;;;27.85;16.05;;;4.60;99.90;;;;;;5071669;28;20059;-68
2020/12/29 09:35:27;;;;;;;23.85;15.43;;;4.60;99.90;;;;;;5071072;28;20017;-68
2020/12/29 09:37:54;;;;;;;26.15;14.63;;;4.70;99.90;;;;;;5071321;28;20055;-69
2020/12/29 09:40:21;;;;;;;29.88;16.48;;;4.80;99.90;;;;;;5089633;28;20032;-69
2020/12/29 09:42:47;;;;;;;33.13;18.63;;;4.90;99.90;;;;;;5070644;28;20025;-69
2020/12/29 09:45:20;;;;;;;33.15;19.65;;;5.00;99.90;;;;;;5087111;28;20086;-68
2020/12/29 09:47:46;;;;;;;30.92;18.33;;;5.10;99.90;;;;;;5088336;28;20016;-68
2020/12/29 09:50:12;;;;;;;29.35;19.55;;;5.10;99.90;;;;;;5081175;28;20036;-67
2020/12/29 09:52:38;;;;;;;31.42;19.00;;;5.20;99.90;;;;;;5071612;28;20020;-68
2020/12/29 09:55:05;;;;;;;30.52;18.40;;;5.30;99.90;;;;;;5079115;28;20024;-67
2020/12/29 09:57:30;;;;;;;29.63;17.75;;;5.40;99.90;;;;;;5082286;28;20439;-67
2020/12/29 09:59:56;;;;;;;29.45;18.33;;;5.40;99.90;;;;;;5088744;28;20044;-68
2020/12/29 10:02:22;;;;;;;33.85;19.50;;;5.50;99.90;;;;;;5085266;28;20475;-67
2020/12/29 10:04:47;;;;;;;29.02;19.00;;;5.50;99.90;;;;;;5074986;28;20111;-67
2020/12/29 10:07:13;;;;;;;33.03;19.35;;;5.60;99.90;;;;;;5081072;28;20407;-69
2020/12/29 10:09:39;;;;;;;34.00;20.15;;;5.60;99.90;;;;;;5075722;28;20036;-68
2020/12/29 10:12:04;;;;;;;33.83;19.00;;;5.70;99.90;;;;;;5087240;28;20051;-69
2020/12/29 10:14:30;;;;;;;37.30;19.00;;;5.70;99.90;;;;;;5083429;28;20461;-68
2020/12/29 10:16:55;;;;;;;31.63;18.65;;;5.80;99.90;;;;;;5079188;28;20453;-68
2020/12/29 10:19:21;;;;;;;25.65;18.33;;;5.80;99.90;;;;;;5080698;28;20361;-69
2020/12/29 10:21:54;;;;;;;28.95;17.65;;;5.90;99.90;;;;;;5089170;28;20441;-69
2020/12/29 10:24:20;;;;;;;26.45;17.30;;;5.90;99.90;;;;;;5087357;28;20073;-69
2020/12/29 10:26:49;;;;;;;25.50;17.92;;;5.90;99.90;;;;;;5082284;28;20525;-69
2020/12/29 10:29:14;;;;;;;23.45;16.55;;;5.90;99.90;;;;;;5070221;28;20036;-69
2020/12/29 10:31:40;;;;;;;25.63;17.50;;;6.00;99.90;;;;;;5069077;28;20054;-68
2020/12/29 10:34:05;;;;;;;23.55;16.52;;;6.00;99.90;;;;;;5070506;28;20021;-68
2020/12/29 10:36:38;;;;;;;26.98;17.65;;;6.00;99.90;;;;;;5085558;28;20023;-68
2020/12/29 10:39:05;;;;;;;21.85;15.15;;;6.00;99.90;;;;;;5087746;28;20073;-68
2020/12/29 10:41:32;;;;;;;19.65;13.63;;;6.00;99.90;;;;;;5085020;28;20029;-68
2020/12/29 10:43:57;;;;;;;20.25;13.45;;;6.10;99.90;;;;;;5086569;28;20164;-68
2020/12/29 10:46:24;;;;;;;18.10;12.85;;;6.10;99.90;;;;;;5086912;28;20406;-68
2020/12/29 10:48:50;;;;;;;20.30;14.32;;;6.20;99.90;;;;;;5089707;28;20024;-68
2020/12/29 10:51:23;;;;;;;21.15;13.20;;;6.20;99.90;;;;;;5087725;28;20082;-68
2020/12/29 10:53:50;;;;;;;17.67;13.15;;;6.30;99.90;;;;;;5087528;28;20058;-68
2020/12/29 10:56:16;;;;;;;16.05;12.70;;;6.30;99.90;;;;;;5084636;28;20452;-68
2020/12/29 10:58:42;;;;;;;16.10;12.45;;;6.40;99.90;;;;;;5088834;28;20035;-68
2020/12/29 11:01:20;;;;;;;16.60;12.75;;;6.40;99.90;;;;;;5087720;28;20013;-68
2020/12/29 11:03:45;;;;;;;21.63;13.32;;;6.50;99.90;;;;;;5073285;28;20029;-68
2020/12/29 11:06:13;;;;;;;15.38;11.18;;;6.50;99.90;;;;;;5091345;28;20035;-69
2020/12/29 11:08:38;;;;;;;18.88;13.73;;;6.50;99.90;;;;;;5071460;28;20029;-69
2020/12/29 11:11:04;;;;;;;15.88;12.68;;;6.50;99.90;;;;;;5087339;28;20143;-69
2020/12/29 11:13:29;;;;;;;14.80;11.52;;;6.50;99.90;;;;;;5090259;28;20111;-68
2020/12/29 11:15:55;;;;;;;15.73;11.38;;;6.60;99.90;;;;;;5091094;28;20024;-69
2020/12/29 11:18:20;;;;;;;23.77;11.90;;;6.60;99.90;;;;;;5080329;28;20381;-69
2020/12/29 11:20:50;;;;;;;18.00;12.18;;;6.70;99.90;;;;;;5085682;28;20032;-69
2020/12/29 11:23:15;;;;;;;16.05;11.02;;;6.80;99.90;;;;;;5087095;28;20522;-69
2020/12/29 11:25:41;;;;;;;15.88;10.57;;;6.80;99.90;;;;;;5085585;28;20032;-69
2020/12/29 11:28:06;;;;;;;14.88;10.82;;;6.90;99.90;;;;;;5086922;28;20020;-70
2020/12/29 11:30:32;;;;;;;13.38;9.88;;;6.90;99.90;;;;;;5091298;28;20044;-68
2020/12/29 11:32:57;;;;;;;15.18;10.57;;;7.00;99.90;;;;;;5083246;28;20024;-70
2020/12/29 11:35:23;;;;;;;14.05;9.73;;;7.00;99.90;;;;;;5078950;28;20036;-69
2020/12/29 11:37:48;;;;;;;11.85;9.68;;;7.00;99.90;;;;;;5074045;28;20027;-68
2020/12/29 11:40:14;;;;;;;10.13;8.65;;;7.00;99.90;;;;;;5073548;28;20028;-69
2020/12/29 11:42:39;;;;;;;13.15;8.60;;;7.10;99.90;;;;;;5075663;28;20032;-68
2020/12/29 11:45:05;;;;;;;8.52;7.53;;;7.00;99.90;;;;;;5076002;28;20028;-69
2020/12/29 11:47:31;;;;;;;11.48;8.30;;;7.00;99.90;;;;;;5083129;28;20036;-69
2020/12/29 11:49:56;;;;;;;12.07;9.38;;;7.00;99.90;;;;;;5072554;28;20016;-69
2020/12/29 11:52:25;;;;;;;12.15;9.77;;;7.00;99.90;;;;;;5078408;28;20036;-69
2020/12/29 11:54:51;;;;;;;14.88;11.73;;;6.90;99.90;;;;;;5073457;28;20027;-68
2020/12/29 11:57:17;;;;;;;15.75;10.02;;;6.90;99.90;;;;;;5082333;28;20024;-68
2020/12/29 11:59:43;;;;;;;13.18;10.88;;;6.80;99.90;;;;;;5093521;28;20023;-68
2020/12/29 12:02:09;;;;;;;12.13;10.65;;;6.80;99.90;;;;;;5093704;28;20028;-68
2020/12/29 12:04:34;;;;;;;13.20;10.95;;;6.80;99.90;;;;;;5092549;28;20020;-68
2020/12/29 12:07:00;;;;;;;17.48;11.43;;;6.80;99.90;;;;;;5093804;28;20076;-68
2020/12/29 12:09:25;;;;;;;13.88;11.13;;;6.80;99.90;;;;;;5092076;28;20354;-69
2020/12/29 12:11:51;;;;;;;14.68;10.63;;;6.80;99.90;;;;;;5099844;28;20062;-69
2020/12/29 12:14:17;;;;;;;16.67;10.50;;;6.80;99.90;;;;;;5093133;28;20473;-69
2020/12/29 12:16:42;;;;;;;13.63;9.48;;;6.90;99.90;;;;;;5089904;28;20893;-69
2020/12/29 12:19:08;;;;;;;10.88;8.98;;;7.00;99.90;;;;;;5090572;28;20051;-69
2020/12/29 12:21:34;;;;;;;14.80;9.02;;;6.70;99.90;;;;;;5092678;28;20027;-69
2020/12/29 12:24:00;;;;;;;9.95;8.68;;;7.00;99.90;;;;;;5077925;28;20491;-69
2020/12/29 12:26:27;;;;;;;12.73;7.70;;;7.10;99.90;;;;;;5081681;28;20113;-69
2020/12/29 12:28:53;;;;;;;10.27;6.50;;;7.00;99.90;;;;;;5093435;28;20040;-69
2020/12/29 12:31:19;;;;;;;7.07;6.38;;;7.00;99.90;;;;;;5087849;28;20035;-70
2020/12/29 12:33:45;;;;;;;6.85;6.13;;;6.90;99.90;;;;;;5095930;28;20084;-68
2020/12/29 12:36:11;;;;;;;8.00;5.18;;;6.90;99.90;;;;;;5087063;28;20089;-69
2020/12/29 12:38:37;;;;;;;7.30;6.00;;;6.90;99.90;;;;;;5072157;28;20460;-69
2020/12/29 12:41:06;;;;;;;7.75;5.85;;;6.90;99.90;;;;;;5072784;28;20032;-69